Time;durP1;ratioP1;P1;durP2;ratioP2;P2;SDS_P1;SDS_P2;PMS_P1;PMS_P2;Temp;Humidity;BMP_temperature;BMP_pressure;BME280_temperature;BME280_humidity;BME280_pressure;Samples;Min_cycle;Max_cycle;Signal;HPM_P1;HPM_P2
2022/01/30 00:00:23;;;;;;;0.10;0.10;;;5.90;99.90;;;;;;5011256;28;20115;-76
2022/01/30 00:02:53;;;;;;;0.10;0.10;;;5.90;99.90;;;;;;5030177;28;20022;-77
2022/01/30 00:05:19;;;;;;;0.20;0.20;;;5.90;99.90;;;;;;5029876;28;20504;-76
2022/01/30 00:07:45;;;;;;;0.20;0.20;;;5.90;99.90;;;;;;5029594;28;20060;-76
2022/01/30 00:10:13;;;;;;;0.32;0.30;;;5.90;99.90;;;;;;5028362;28;20481;-76
2022/01/30 00:13:16;;;;;;;0.10;0.10;;;5.90;99.90;;;;;;5028677;28;20022;-77
2022/01/30 00:15:47;;;;;;;0.10;0.10;;;5.90;99.90;;;;;;5027944;28;20067;-77
2022/01/30 00:18:30;;;;;;;0.45;0.30;;;5.90;99.90;;;;;;5027240;28;20026;-77
2022/01/30 00:23:33;;;;;;;0.10;0.10;;;5.70;99.90;;;;;;5029335;28;20116;-76
2022/01/30 00:26:00;;;;;;;0.10;0.10;;;5.90;99.90;;;;;;5028998;28;20021;-76
2022/01/30 00:28:27;;;;;;;0.10;0.10;;;5.90;99.90;;;;;;5028819;28;20029;-77
2022/01/30 00:30:54;;;;;;;0.10;0.10;;;5.90;99.90;;;;;;5030822;28;20025;-77
2022/01/30 00:33:20;;;;;;;1.60;0.32;;;5.90;99.90;;;;;;5032110;28;20481;-77
2022/01/30 00:35:46;;;;;;;0.13;0.13;;;5.80;99.90;;;;;;5032499;28;20021;-77
2022/01/30 00:38:18;;;;;;;0.10;0.10;;;5.80;99.90;;;;;;5036413;28;20078;-76
2022/01/30 00:40:48;;;;;;;0.47;0.25;;;5.80;99.90;;;;;;5031303;28;20466;-75
2022/01/30 00:43:14;;;;;;;0.10;0.10;;;5.90;99.90;;;;;;5031858;28;20029;-77
2022/01/30 00:45:40;;;;;;;0.28;0.20;;;5.90;99.90;;;;;;5031145;28;20037;-76
2022/01/30 00:48:06;;;;;;;0.20;0.20;;;5.90;99.90;;;;;;5012815;28;20504;-76
2022/01/30 00:50:32;;;;;;;1.02;0.73;;;6.00;99.90;;;;;;5031489;28;20041;-76
2022/01/30 00:52:59;;;;;;;0.22;0.22;;;6.00;99.90;;;;;;5012641;28;20018;-76
2022/01/30 00:55:28;;;;;;;0.10;0.10;;;6.10;99.90;;;;;;5032801;28;20026;-76
2022/01/30 00:57:55;;;;;;;0.13;0.13;;;6.20;99.90;;;;;;5031639;28;20029;-77
2022/01/30 01:00:22;;;;;;;0.98;0.10;;;6.20;99.90;;;;;;5029377;28;20285;-76
2022/01/30 01:02:47;;;;;;;0.45;0.17;;;6.20;99.90;;;;;;5030171;28;20036;-76
2022/01/30 01:05:14;;;;;;;0.30;0.30;;;6.20;99.90;;;;;;5032939;28;20029;-76
2022/01/30 01:07:44;;;;;;;0.10;0.10;;;6.10;99.90;;;;;;5046012;28;20022;-76
2022/01/30 01:10:25;;;;;;;0.73;0.68;;;6.10;99.90;;;;;;5030657;28;20393;-76
2022/01/30 01:23:44;;;;;;;0.17;0.17;;;5.80;99.90;;;;;;5031750;28;20032;-76
2022/01/30 01:26:11;;;;;;;0.20;0.20;;;5.80;99.90;;;;;;5047531;28;20033;-77
2022/01/30 01:28:37;;;;;;;0.47;0.40;;;5.80;99.90;;;;;;5030670;28;20027;-77
2022/01/30 01:31:03;;;;;;;0.20;0.20;;;5.80;99.90;;;;;;5029100;28;20032;-76
2022/01/30 01:33:42;;;;;;;0.20;0.20;;;5.80;99.90;;;;;;5045656;28;20025;-76
2022/01/30 01:36:08;;;;;;;0.30;0.30;;;5.90;99.90;;;;;;5030165;28;20025;-76
2022/01/30 01:38:33;;;;;;;0.28;0.28;;;5.80;99.90;;;;;;5030426;28;20102;-75
2022/01/30 01:41:01;;;;;;;0.45;0.28;;;5.80;99.90;;;;;;5027018;28;20038;-76
2022/01/30 01:43:27;;;;;;;0.55;0.55;;;5.70;99.90;;;;;;5029432;28;20030;-75
2022/01/30 01:45:56;;;;;;;1.38;0.63;;;5.50;99.90;;;;;;5031317;28;20029;-77
2022/01/30 01:48:22;;;;;;;0.93;0.70;;;5.40;99.90;;;;;;5030684;28;20028;-76
2022/01/30 01:51:06;;;;;;;1.02;0.63;;;5.30;99.90;;;;;;5030724;28;20397;-76
2022/01/30 01:53:34;;;;;;;2.15;0.65;;;5.20;99.90;;;;;;5031385;28;20032;-76
2022/01/30 01:56:00;;;;;;;0.50;0.50;;;5.00;99.90;;;;;;5029121;28;20031;-76
2022/01/30 01:58:27;;;;;;;0.55;0.55;;;4.90;99.90;;;;;;5028725;28;20060;-76
2022/01/30 02:00:52;;;;;;;0.93;0.50;;;4.90;99.90;;;;;;5028935;28;20060;-76
2022/01/30 02:03:19;;;;;;;3.00;0.80;;;4.90;99.90;;;;;;5028774;28;20021;-76
2022/01/30 02:05:54;;;;;;;0.98;0.98;;;4.90;99.90;;;;;;5029086;28;20338;-77
2022/01/30 02:08:31;;;;;;;0.70;0.70;;;4.90;99.90;;;;;;5028689;28;20017;-76
2022/01/30 02:11:03;;;;;;;3.00;0.55;;;4.90;99.90;;;;;;5028741;28;20026;-76
2022/01/30 02:25:35;;;;;;;0.73;0.73;;;4.90;99.90;;;;;;5028756;28;20104;-76
2022/01/30 02:27:26;;;;;;;0.77;0.77;;;4.90;99.90;;;;;;5020615;28;20060;-76
2022/01/30 02:29:51;;;;;;;0.80;0.80;;;4.80;99.90;;;;;;5028877;28;20161;-77
2022/01/30 02:32:18;;;;;;;1.67;0.98;;;4.80;99.90;;;;;;5028220;28;20194;-76
2022/01/30 02:34:44;;;;;;;1.83;1.10;;;4.80;99.90;;;;;;5028391;28;20025;-76
2022/01/30 02:37:12;;;;;;;1.38;1.35;;;4.80;99.90;;;;;;5026757;28;20100;-77
2022/01/30 02:39:38;;;;;;;0.95;0.95;;;4.70;99.90;;;;;;5008434;28;20208;-76
2022/01/30 02:42:05;;;;;;;2.15;1.10;;;4.70;99.90;;;;;;5008443;28;20513;-76
2022/01/30 02:45:07;;;;;;;0.80;0.80;;;4.70;99.90;;;;;;5008430;28;20164;-76
2022/01/30 02:47:39;;;;;;;1.15;0.90;;;4.80;99.90;;;;;;5008043;28;20050;-76
2022/01/30 02:52:37;;;;;;;0.93;0.80;;;4.80;99.90;;;;;;5008120;28;20018;-76
2022/01/30 02:55:04;;;;;;;0.75;0.68;;;4.90;99.90;;;;;;5008418;28;20032;-76
2022/01/30 02:57:32;;;;;;;0.85;0.85;;;5.00;99.90;;;;;;5007721;28;20021;-76
2022/01/30 02:59:57;;;;;;;0.52;0.52;;;5.00;99.90;;;;;;5007620;28;20486;-76
2022/01/30 03:02:23;;;;;;;0.57;0.57;;;5.10;99.90;;;;;;5007870;28;20041;-76
2022/01/30 03:04:48;;;;;;;0.50;0.50;;;5.20;99.90;;;;;;5027021;28;20041;-75
2022/01/30 03:07:14;;;;;;;0.70;0.60;;;5.20;99.90;;;;;;5027922;28;20763;-75
2022/01/30 03:09:40;;;;;;;1.05;0.88;;;5.20;99.90;;;;;;5026487;28;20682;-76
2022/01/30 03:12:07;;;;;;;0.52;0.52;;;5.20;99.90;;;;;;5009771;28;20505;-76
2022/01/30 03:14:32;;;;;;;1.83;0.70;;;5.20;99.90;;;;;;5027790;28;20056;-76
2022/01/30 03:17:00;;;;;;;0.50;0.50;;;5.30;99.90;;;;;;5027930;28;20053;-76
2022/01/30 03:19:25;;;;;;;1.67;0.70;;;5.30;99.90;;;;;;5009634;28;20147;-76
2022/01/30 03:21:51;;;;;;;0.68;0.63;;;5.30;99.90;;;;;;5027052;28;20505;-76
2022/01/30 03:24:17;;;;;;;0.50;0.50;;;5.30;99.90;;;;;;5026558;28;20493;-75
2022/01/30 03:26:42;;;;;;;0.50;0.50;;;5.30;99.90;;;;;;5027433;28;20029;-76
2022/01/30 03:29:09;;;;;;;0.70;0.70;;;5.40;99.90;;;;;;5026308;28;20026;-75
2022/01/30 03:31:37;;;;;;;0.75;0.60;;;5.40;99.90;;;;;;5026493;28;20434;-76
2022/01/30 03:34:03;;;;;;;0.60;0.60;;;5.40;99.90;;;;;;5027727;28;20117;-76
2022/01/30 03:36:30;;;;;;;0.50;0.50;;;5.40;99.90;;;;;;5027397;28;20484;-76
2022/01/30 03:38:55;;;;;;;0.68;0.60;;;5.40;99.90;;;;;;5027184;28;20437;-76
2022/01/30 03:41:21;;;;;;;0.80;0.77;;;5.40;99.90;;;;;;5026788;28;20470;-76
2022/01/30 03:43:47;;;;;;;1.73;1.10;;;5.30;99.90;;;;;;5026942;28;20808;-76
2022/01/30 03:46:12;;;;;;;0.77;0.77;;;5.30;99.90;;;;;;5027501;28;20384;-76
2022/01/30 03:48:38;;;;;;;0.80;0.70;;;5.30;99.90;;;;;;5027420;28;20241;-76
2022/01/30 03:51:04;;;;;;;0.80;0.80;;;5.20;99.90;;;;;;5027083;28;20033;-76
2022/01/30 03:53:33;;;;;;;0.40;0.40;;;5.20;99.90;;;;;;5027881;28;20029;-76
2022/01/30 03:55:58;;;;;;;0.40;0.40;;;5.10;99.90;;;;;;5027332;28;20037;-76
2022/01/30 03:58:24;;;;;;;1.02;0.82;;;5.20;99.90;;;;;;5026415;28;20401;-76
2022/01/30 04:00:50;;;;;;;0.65;0.50;;;5.20;99.90;;;;;;5027838;28;20060;-76
2022/01/30 04:03:15;;;;;;;0.55;0.45;;;5.20;99.90;;;;;;5028471;28;20029;-76
2022/01/30 04:05:41;;;;;;;0.50;0.50;;;5.20;99.90;;;;;;5030160;28;20351;-76
2022/01/30 04:08:07;;;;;;;0.40;0.40;;;5.20;99.90;;;;;;5029137;28;20056;-76
2022/01/30 04:10:33;;;;;;;0.50;0.43;;;5.20;99.90;;;;;;5028923;28;20595;-76
2022/01/30 04:12:59;;;;;;;0.22;0.22;;;5.20;99.90;;;;;;5011659;28;20025;-76
2022/01/30 04:15:25;;;;;;;0.43;0.35;;;5.30;99.90;;;;;;5028997;28;20090;-76
2022/01/30 04:17:51;;;;;;;1.75;0.65;;;5.30;99.90;;;;;;5031198;28;20025;-76
2022/01/30 04:20:17;;;;;;;0.82;0.70;;;5.30;99.90;;;;;;5031385;28;20444;-76
2022/01/30 04:22:43;;;;;;;0.55;0.50;;;5.30;99.90;;;;;;5012869;28;20373;-76
2022/01/30 04:25:09;;;;;;;0.93;0.40;;;5.30;99.90;;;;;;5030769;28;20027;-76
2022/01/30 04:27:34;;;;;;;0.50;0.50;;;5.30;99.90;;;;;;5030594;28;20504;-76
2022/01/30 04:30:00;;;;;;;0.40;0.40;;;5.30;99.90;;;;;;5029672;28;20030;-76
2022/01/30 04:32:29;;;;;;;2.38;0.60;;;5.40;99.90;;;;;;5030529;28;20497;-76
2022/01/30 04:34:58;;;;;;;0.55;0.40;;;5.50;99.90;;;;;;5030968;28;20025;-76
2022/01/30 04:37:45;;;;;;;0.85;0.80;;;5.50;99.90;;;;;;5029397;28;20385;-76
2022/01/30 05:04:30;;;;;;;0.30;0.30;;;5.50;99.90;;;;;;5031295;28;20340;-75
2022/01/30 05:09:25;;;;;;;0.55;0.50;;;5.50;99.90;;;;;;5030359;28;20381;-75
2022/01/30 05:11:50;;;;;;;0.98;0.50;;;5.50;99.90;;;;;;5012687;28;20492;-76
2022/01/30 05:14:16;;;;;;;1.05;0.60;;;5.50;99.90;;;;;;5030069;28;20025;-76
2022/01/30 05:16:42;;;;;;;0.55;0.55;;;5.50;99.90;;;;;;5031959;28;20013;-76
2022/01/30 05:19:11;;;;;;;0.40;0.40;;;5.60;99.90;;;;;;5034330;28;20464;-76
2022/01/30 05:21:37;;;;;;;1.55;0.55;;;5.50;99.90;;;;;;5033713;28;20044;-76
2022/01/30 05:24:03;;;;;;;0.95;0.57;;;5.50;99.90;;;;;;5034260;28;20013;-75
2022/01/30 05:26:29;;;;;;;1.33;0.98;;;5.50;99.90;;;;;;5033593;28;20025;-76
2022/01/30 05:28:55;;;;;;;0.60;0.43;;;5.50;99.90;;;;;;5033012;28;20032;-77
2022/01/30 05:31:20;;;;;;;0.55;0.55;;;5.30;99.90;;;;;;5033167;28;20026;-77
2022/01/30 05:33:46;;;;;;;0.70;0.60;;;5.30;99.90;;;;;;5033404;28;20024;-77
2022/01/30 05:36:13;;;;;;;0.50;0.38;;;5.30;99.90;;;;;;5033024;28;20025;-77
2022/01/30 05:38:39;;;;;;;1.33;1.23;;;5.30;99.90;;;;;;5033532;28;20022;-78
2022/01/30 05:41:05;;;;;;;1.15;0.73;;;5.30;99.90;;;;;;5033330;28;20603;-77
2022/01/30 05:43:32;;;;;;;0.75;0.40;;;5.30;99.90;;;;;;5033046;28;20151;-77
2022/01/30 05:46:12;;;;;;;2.15;0.88;;;5.20;99.90;;;;;;5031838;28;20021;-77
2022/01/30 05:48:39;;;;;;;1.27;0.88;;;5.30;99.90;;;;;;5033025;28;20021;-77
2022/01/30 05:51:05;;;;;;;0.55;0.55;;;5.30;99.90;;;;;;5015756;28;20021;-77
2022/01/30 05:53:32;;;;;;;0.60;0.60;;;5.30;99.90;;;;;;5034051;28;20025;-77
2022/01/30 05:55:58;;;;;;;0.90;0.70;;;;;;;;;;5033414;28;20017;-77
2022/01/30 05:58:23;;;;;;;0.52;0.50;;;5.40;99.90;;;;;;5015121;28;20029;-77
2022/01/30 06:00:49;;;;;;;1.13;0.70;;;5.40;99.90;;;;;;5032861;28;20390;-77
2022/01/30 06:03:15;;;;;;;0.95;0.88;;;5.40;99.90;;;;;;5015119;28;20022;-77
2022/01/30 06:05:45;;;;;;;1.75;0.63;;;5.40;99.90;;;;;;5032539;28;20033;-77
2022/01/30 06:08:17;;;;;;;0.70;0.70;;;5.50;99.90;;;;;;5032677;28;20036;-77
2022/01/30 06:10:42;;;;;;;1.58;0.93;;;5.50;99.90;;;;;;5032390;28;20025;-77
2022/01/30 06:13:08;;;;;;;0.63;0.63;;;5.60;99.90;;;;;;5032352;28;20044;-77
2022/01/30 06:15:34;;;;;;;0.80;0.57;;;5.50;99.90;;;;;;5033087;28;20029;-77
2022/01/30 06:17:59;;;;;;;1.67;1.58;;;5.60;99.90;;;;;;5031962;28;20095;-77
2022/01/30 06:20:25;;;;;;;1.30;0.70;;;5.60;99.90;;;;;;5033380;28;20021;-77
2022/01/30 06:22:51;;;;;;;0.80;0.80;;;5.60;99.90;;;;;;5032720;28;20044;-78
2022/01/30 06:25:18;;;;;;;0.85;0.85;;;5.60;99.90;;;;;;5033433;28;20536;-77
2022/01/30 06:27:43;;;;;;;1.15;0.98;;;5.70;99.90;;;;;;5032638;28;20116;-78
2022/01/30 06:30:10;;;;;;;1.33;1.00;;;5.80;99.90;;;;;;5032781;28;20096;-77
2022/01/30 06:32:35;;;;;;;1.10;0.80;;;5.70;99.90;;;;;;5031718;28;20025;-77
2022/01/30 06:35:02;;;;;;;0.68;0.60;;;5.70;99.90;;;;;;5033317;28;20036;-77
2022/01/30 06:37:27;;;;;;;1.20;1.10;;;5.70;99.90;;;;;;5015889;28;20053;-76
2022/01/30 06:39:53;;;;;;;3.90;1.02;;;5.70;99.90;;;;;;5031687;28;20473;-77
2022/01/30 06:42:19;;;;;;;1.27;0.80;;;5.70;99.90;;;;;;5033226;28;20162;-77
2022/01/30 06:44:45;;;;;;;0.93;0.82;;;5.60;99.90;;;;;;5032574;28;20022;-76
2022/01/30 06:47:12;;;;;;;1.13;0.90;;;5.60;99.90;;;;;;5033475;28;20035;-77
2022/01/30 06:49:38;;;;;;;1.35;1.00;;;5.60;99.90;;;;;;5033344;28;20029;-77
2022/01/30 06:52:06;;;;;;;2.17;1.23;;;5.60;99.90;;;;;;5033022;28;20100;-77
2022/01/30 06:54:32;;;;;;;1.13;0.68;;;5.60;99.90;;;;;;5033217;28;20067;-77
2022/01/30 06:56:57;;;;;;;2.47;1.45;;;5.60;99.90;;;;;;5032719;28;20025;-77
2022/01/30 06:59:23;;;;;;;1.27;1.17;;;5.50;99.90;;;;;;5032887;28;20101;-78
2022/01/30 07:01:51;;;;;;;1.67;1.30;;;5.60;99.90;;;;;;5033176;28;20357;-77
2022/01/30 07:04:17;;;;;;;1.15;1.08;;;5.60;99.90;;;;;;5031115;28;20043;-77
2022/01/30 07:06:42;;;;;;;1.23;1.13;;;5.60;99.90;;;;;;5033206;28;20532;-78
2022/01/30 07:09:08;;;;;;;3.05;2.08;;;5.60;99.90;;;;;;5032449;28;20109;-77
2022/01/30 07:11:33;;;;;;;3.53;1.83;;;5.60;99.90;;;;;;5032630;28;20474;-77
2022/01/30 07:13:59;;;;;;;2.42;1.73;;;5.60;99.90;;;;;;5033591;28;20028;-77
2022/01/30 07:16:25;;;;;;;4.72;1.75;;;5.50;99.90;;;;;;5033374;28;20061;-77
2022/01/30 07:18:51;;;;;;;8.77;3.83;;;5.50;99.90;;;;;;5016643;28;20045;-77
2022/01/30 07:21:16;;;;;;;2.05;1.50;;;5.40;99.90;;;;;;5033515;28;20124;-78
2022/01/30 07:23:42;;;;;;;1.30;1.20;;;5.40;99.90;;;;;;5032153;28;20120;-78
2022/01/30 07:26:09;;;;;;;1.90;1.77;;;5.40;99.90;;;;;;5014505;28;20029;-77
2022/01/30 07:28:34;;;;;;;3.58;1.60;;;5.40;99.90;;;;;;5032722;28;20029;-77
2022/01/30 07:31:00;;;;;;;3.22;1.60;;;5.40;99.90;;;;;;5042756;28;20040;-80
2022/01/30 07:33:26;;;;;;;3.70;2.25;;;5.50;99.90;;;;;;5031211;28;20112;-83
2022/01/30 07:35:53;;;;;;;4.13;2.45;;;5.50;99.90;;;;;;5031458;28;20470;-82
2022/01/30 07:38:21;;;;;;;2.72;1.70;;;5.50;99.90;;;;;;5025073;28;20022;-82
2022/01/30 07:40:47;;;;;;;5.20;2.78;;;5.50;99.90;;;;;;5048103;28;20068;-82
2022/01/30 07:43:13;;;;;;;2.60;1.67;;;5.50;99.90;;;;;;5032986;28;20029;-81
2022/01/30 07:45:38;;;;;;;8.55;4.25;;;5.50;99.90;;;;;;5041380;28;20028;-83
2022/01/30 07:48:05;;;;;;;2.78;1.20;;;5.50;99.90;;;;;;5051471;28;20032;-83
2022/01/30 07:50:30;;;;;;;5.63;2.08;;;5.50;99.90;;;;;;5051274;28;20021;-83
2022/01/30 07:52:58;;;;;;;4.95;2.67;;;5.40;99.90;;;;;;5061659;28;20105;-80
2022/01/30 07:55:24;;;;;;;2.35;1.75;;;5.40;99.90;;;;;;5037718;28;20041;-82
2022/01/30 07:57:50;;;;;;;9.15;4.07;;;5.40;99.90;;;;;;5042116;28;20032;-80
2022/01/30 08:00:17;;;;;;;9.90;4.90;;;5.40;99.90;;;;;;5035160;28;20045;-81
2022/01/30 08:02:42;;;;;;;7.82;4.53;;;5.50;99.90;;;;;;5016221;28;20504;-79
2022/01/30 08:05:09;;;;;;;3.42;2.25;;;5.50;99.90;;;;;;5026384;28;20053;-78
2022/01/30 08:07:35;;;;;;;2.38;2.13;;;5.50;99.90;;;;;;5011727;28;20116;-79
2022/01/30 08:10:00;;;;;;;8.20;4.95;;;6.70;99.90;;;;;;5012676;28;20280;-80
2022/01/30 08:12:26;;;;;;;3.33;1.90;;;5.60;99.90;;;;;;5030786;28;20025;-79
2022/01/30 08:14:52;;;;;;;3.72;2.58;;;5.60;99.90;;;;;;5035900;28;20482;-81
2022/01/30 08:17:21;;;;;;;3.58;1.77;;;5.60;99.90;;;;;;5013476;28;20034;-79
2022/01/30 08:19:49;;;;;;;1.35;1.25;;;5.60;99.90;;;;;;5034727;28;20017;-80
2022/01/30 08:22:15;;;;;;;2.10;0.90;;;5.60;99.90;;;;;;5028951;28;20025;-81
2022/01/30 08:24:41;;;;;;;1.27;0.80;;;5.60;99.90;;;;;;5029857;28;20132;-79
2022/01/30 08:27:07;;;;;;;1.85;1.65;;;5.50;99.90;;;;;;5040768;28;20542;-79
2022/01/30 08:29:32;;;;;;;0.77;0.77;;;5.50;99.90;;;;;;5050902;28;20017;-79
2022/01/30 08:31:58;;;;;;;0.98;0.98;;;5.40;99.90;;;;;;5047578;28;20032;-79
2022/01/30 08:34:25;;;;;;;1.10;1.00;;;5.40;99.90;;;;;;5050168;28;20073;-80
2022/01/30 08:36:51;;;;;;;1.45;1.35;;;5.40;99.90;;;;;;5035613;28;20033;-81
2022/01/30 08:39:17;;;;;;;0.85;0.82;;;5.50;99.90;;;;;;5033872;28;20032;-80
2022/01/30 08:41:43;;;;;;;0.73;0.70;;;5.60;99.90;;;;;;5053783;28;20483;-80
2022/01/30 08:44:09;;;;;;;1.50;1.13;;;5.70;99.90;;;;;;5052912;28;20017;-80
2022/01/30 08:46:37;;;;;;;1.73;1.10;;;5.80;99.90;;;;;;5051503;28;20083;-81
2022/01/30 08:49:03;;;;;;;3.10;0.73;;;5.70;99.90;;;;;;5051466;28;20025;-79
2022/01/30 08:51:29;;;;;;;1.13;1.00;;;6.10;99.90;;;;;;5054922;28;20025;-80
2022/01/30 08:53:55;;;;;;;0.95;0.80;;;6.30;99.90;;;;;;5035992;28;20107;-80
2022/01/30 08:56:23;;;;;;;0.90;0.90;;;6.50;99.90;;;;;;5055897;28;20025;-81
2022/01/30 08:58:49;;;;;;;1.27;0.93;;;6.70;99.90;;;;;;5056823;28;20047;-80
2022/01/30 09:01:15;;;;;;;0.95;0.60;;;6.70;99.90;;;;;;5052184;28;20060;-80
2022/01/30 09:03:43;;;;;;;1.85;1.00;;;6.80;99.90;;;;;;5041435;28;20022;-80
2022/01/30 09:06:09;;;;;;;5.78;3.03;;;6.80;99.90;;;;;;5041245;28;20021;-80
2022/01/30 09:08:35;;;;;;;0.80;0.73;;;6.90;99.90;;;;;;5017127;28;20055;-81
2022/01/30 09:11:26;;;;;;;1.30;1.10;;;7.00;99.90;;;;;;5045116;28;20029;-82
2022/01/30 09:13:59;;;;;;;1.23;0.70;;;;;;;;;;5046941;28;20033;-80
2022/01/30 09:16:25;;;;;;;1.27;0.77;;;7.20;99.90;;;;;;5053565;28;20404;-81
2022/01/30 09:18:51;;;;;;;1.02;0.93;;;7.20;99.90;;;;;;5035984;28;20034;-82
2022/01/30 09:21:17;;;;;;;0.40;0.40;;;7.30;99.90;;;;;;5021751;28;20519;-81
2022/01/30 09:23:42;;;;;;;1.23;1.02;;;7.30;99.90;;;;;;5031189;28;20593;-81
2022/01/30 09:26:08;;;;;;;1.05;0.68;;;7.50;99.90;;;;;;5013143;28;20381;-81
2022/01/30 09:28:34;;;;;;;1.05;0.68;;;7.30;99.90;;;;;;5048271;28;20053;-81
2022/01/30 09:30:59;;;;;;;0.80;0.80;;;7.30;99.90;;;;;;5032250;28;20486;-81
2022/01/30 09:33:25;;;;;;;0.63;0.60;;;7.40;99.90;;;;;;5034480;28;20025;-82
2022/01/30 09:35:50;;;;;;;1.25;0.98;;;7.50;99.90;;;;;;5038756;28;20523;-82
2022/01/30 09:38:16;;;;;;;1.20;0.77;;;7.50;99.90;;;;;;5036412;28;20424;-80
2022/01/30 09:40:42;;;;;;;1.40;0.90;;;7.50;99.90;;;;;;5056138;28;20475;-82
2022/01/30 09:43:08;;;;;;;0.90;0.65;;;7.50;99.90;;;;;;5040051;28;20093;-80
2022/01/30 09:45:35;;;;;;;1.05;0.75;;;7.60;99.90;;;;;;5040738;28;20087;-81
2022/01/30 09:48:01;;;;;;;1.58;0.75;;;7.60;99.90;;;;;;5033523;28;20377;-81
2022/01/30 09:50:28;;;;;;;1.40;1.30;;;7.50;99.90;;;;;;5031447;28;20029;-81
2022/01/30 09:52:54;;;;;;;0.85;0.70;;;7.70;99.90;;;;;;5058177;28;20150;-81
2022/01/30 09:55:20;;;;;;;1.40;1.30;;;7.70;99.90;;;;;;5049659;28;20021;-80
2022/01/30 09:57:47;;;;;;;2.20;0.93;;;7.80;99.90;;;;;;5047144;28;20354;-82
2022/01/30 10:00:13;;;;;;;1.30;1.00;;;7.90;99.90;;;;;;5039648;28;20049;-81
2022/01/30 10:02:43;;;;;;;2.03;0.90;;;7.90;99.90;;;;;;5026469;28;20025;-82
2022/01/30 10:05:12;;;;;;;1.75;0.98;;;7.90;99.90;;;;;;5024127;28;20057;-82
2022/01/30 10:07:41;;;;;;;1.85;1.00;;;8.00;99.90;;;;;;5035650;28;20029;-83
2022/01/30 10:10:12;;;;;;;1.13;1.00;;;8.00;99.90;;;;;;5034216;28;20097;-81
2022/01/30 10:13:01;;;;;;;3.10;1.05;;;8.00;99.90;;;;;;5033068;28;20033;-83
2022/01/30 10:15:27;;;;;;;1.00;0.90;;;8.00;99.90;;;;;;5028690;28;20022;-82
2022/01/30 10:17:52;;;;;;;1.83;1.05;;;8.00;99.90;;;;;;5026270;28;20045;-81
2022/01/30 10:20:21;;;;;;;1.83;1.30;;;7.80;99.90;;;;;;5022056;28;20053;-81
2022/01/30 10:22:56;;;;;;;3.03;0.85;;;7.90;99.90;;;;;;5026176;28;20021;-82
2022/01/30 10:25:31;;;;;;;1.45;0.73;;;8.00;99.90;;;;;;5017755;28;20203;-81
2022/01/30 10:28:09;;;;;;;1.00;0.70;;;8.00;99.90;;;;;;5010523;28;20022;-81
2022/01/30 10:30:50;;;;;;;0.98;0.90;;;7.90;99.90;;;;;;5017429;28;20038;-82
2022/01/30 10:33:21;;;;;;;2.78;0.90;;;7.70;99.90;;;;;;5015532;28;20030;-81
2022/01/30 10:35:57;;;;;;;1.58;0.90;;;7.90;99.90;;;;;;5014400;28;20025;-81
2022/01/30 10:38:37;;;;;;;0.68;0.68;;;7.90;99.90;;;;;;5014908;28;20280;-82
2022/01/30 10:41:20;;;;;;;1.83;0.90;;;8.10;99.90;;;;;;5014269;28;20505;-81
2022/01/30 10:44:03;;;;;;;4.47;1.58;;;8.20;99.90;;;;;;5013090;28;20049;-82
2022/01/30 10:46:39;;;;;;;1.08;0.70;;;8.40;99.90;;;;;;5024696;28;20108;-81
2022/01/30 10:49:17;;;;;;;0.68;0.52;;;8.40;99.90;;;;;;5023800;28;20030;-80
2022/01/30 10:52:00;;;;;;;0.90;0.80;;;8.30;99.90;;;;;;5012225;28;20267;-81
2022/01/30 10:54:32;;;;;;;3.05;1.48;;;8.20;99.90;;;;;;5011984;28;20026;-80
2022/01/30 10:57:09;;;;;;;1.63;1.52;;;8.00;99.90;;;;;;5013279;28;20030;-81
2022/01/30 10:59:43;;;;;;;1.67;1.00;;;7.80;99.90;;;;;;5024886;28;20053;-81
2022/01/30 11:02:21;;;;;;;1.23;1.13;;;7.70;99.90;;;;;;5032332;28;20128;-81
2022/01/30 11:04:48;;;;;;;1.83;1.10;;;7.60;99.90;;;;;;5035332;28;20089;-81
2022/01/30 11:07:17;;;;;;;2.05;1.52;;;5.50;99.90;;;;;;5017835;28;20269;-82
2022/01/30 11:09:57;;;;;;;1.03;1.00;;;7.50;99.90;;;;;;5000876;28;20545;-81
2022/01/30 11:12:34;;;;;;;2.20;1.27;;;7.40;99.90;;;;;;4995588;28;20025;-80
2022/01/30 11:17:46;;;;;;;4.38;2.63;;;7.50;99.90;;;;;;5011053;28;20040;-81
2022/01/30 11:20:15;;;;;;;1.20;1.10;;;7.50;99.90;;;;;;5007644;28;20037;-78
2022/01/30 11:22:45;;;;;;;1.30;1.20;;;7.50;99.90;;;;;;5010199;28;20026;-78
2022/01/30 11:25:12;;;;;;;2.00;1.25;;;7.60;99.90;;;;;;5023543;28;20073;-77
2022/01/30 11:27:43;;;;;;;1.50;1.10;;;7.80;99.90;;;;;;5010203;28;20517;-77
2022/01/30 11:30:09;;;;;;;2.85;1.15;;;7.80;99.90;;;;;;5010905;28;20010;-77
2022/01/30 11:32:35;;;;;;;2.42;0.90;;;8.00;99.90;;;;;;5008788;28;20496;-78
2022/01/30 11:35:01;;;;;;;0.93;0.80;;;8.20;99.90;;;;;;5010052;28;20062;-76
2022/01/30 11:37:36;;;;;;;3.13;0.80;;;8.40;99.90;;;;;;5013599;28;20022;-77
2022/01/30 11:40:15;;;;;;;1.02;0.60;;;8.70;99.90;;;;;;5011276;28;20105;-77
2022/01/30 11:42:49;;;;;;;0.85;0.85;;;8.80;99.90;;;;;;5011276;28;20053;-76
2022/01/30 11:45:27;;;;;;;1.98;1.02;;;8.50;99.90;;;;;;5008360;28;20169;-77
2022/01/30 11:48:00;;;;;;;1.30;0.88;;;8.50;99.90;;;;;;5010357;28;20022;-77
2022/01/30 11:50:45;;;;;;;1.38;1.17;;;8.40;99.90;;;;;;5013770;28;20029;-77
2022/01/30 11:53:25;;;;;;;1.67;1.25;;;8.20;99.90;;;;;;5012887;28;20025;-77
2022/01/30 11:56:00;;;;;;;2.85;1.17;;;7.90;99.90;;;;;;5016016;28;20026;-77
2022/01/30 11:58:40;;;;;;;2.20;1.42;;;8.00;99.90;;;;;;5028255;28;20098;-77
2022/01/30 12:01:06;;;;;;;1.50;0.88;;;7.90;99.90;;;;;;5009190;28;20105;-78
2022/01/30 12:03:35;;;;;;;2.05;0.85;;;7.90;99.90;;;;;;5009783;28;20109;-78
2022/01/30 12:06:19;;;;;;;1.83;1.23;;;8.00;99.90;;;;;;5024359;28;20022;-78
2022/01/30 12:08:46;;;;;;;1.20;0.80;;;8.10;99.90;;;;;;5008009;28;20029;-78
2022/01/30 12:11:36;;;;;;;1.05;0.77;;;8.20;99.90;;;;;;5006019;28;20029;-79
2022/01/30 12:14:13;;;;;;;1.92;0.90;;;8.40;99.90;;;;;;5002988;28;20030;-79
2022/01/30 12:16:48;;;;;;;0.93;0.90;;;8.50;99.90;;;;;;5003338;28;20029;-78
2022/01/30 12:19:45;;;;;;;0.63;0.63;;;8.60;99.90;;;;;;5007814;28;20026;-80
2022/01/30 12:22:17;;;;;;;1.60;1.00;;;8.40;99.90;;;;;;5019333;28;20037;-79
2022/01/30 12:24:50;;;;;;;4.20;1.67;;;8.30;99.90;;;;;;5006919;28;20053;-80
2022/01/30 12:27:17;;;;;;;0.65;0.63;;;8.30;99.90;;;;;;5012615;28;20026;-77
2022/01/30 12:29:50;;;;;;;1.38;0.88;;;8.30;99.90;;;;;;5011273;28;20057;-78
2022/01/30 12:32:28;;;;;;;2.08;0.80;;;8.30;99.90;;;;;;5011181;28;20132;-78
2022/01/30 12:34:56;;;;;;;1.55;0.95;;;8.30;99.90;;;;;;5013026;28;20458;-78
2022/01/30 12:37:25;;;;;;;5.30;2.58;;;8.20;99.90;;;;;;5013243;28;20088;-78
2022/01/30 12:39:54;;;;;;;0.73;0.70;;;8.20;99.90;;;;;;5011378;28;20575;-78
2022/01/30 12:42:22;;;;;;;0.70;0.65;;;8.20;99.90;;;;;;5010916;28;20037;-78
2022/01/30 12:44:49;;;;;;;1.45;1.27;;;7.90;99.90;;;;;;5012279;28;20490;-78
2022/01/30 12:47:15;;;;;;;2.92;1.17;;;7.80;99.90;;;;;;5011157;28;20470;-78
2022/01/30 12:49:50;;;;;;;2.58;1.00;;;7.70;99.90;;;;;;5010640;28;20214;-78
2022/01/30 12:52:51;;;;;;;1.13;1.05;;;7.80;99.90;;;;;;5027502;28;20438;-78
2022/01/30 12:55:11;;;;;;;2.10;1.90;;;7.70;99.90;;;;;;5010672;28;20057;-78
2022/01/30 12:57:38;;;;;;;1.50;1.40;;;7.60;99.90;;;;;;5011378;28;20438;-78
2022/01/30 13:00:08;;;;;;;1.20;1.02;;;7.60;99.90;;;;;;5026715;28;20049;-78
2022/01/30 13:02:36;;;;;;;1.00;0.80;;;7.70;99.90;;;;;;5031948;28;20029;-78
2022/01/30 13:05:08;;;;;;;1.40;1.13;;;7.90;99.90;;;;;;5032458;28;20476;-78
2022/01/30 13:07:34;;;;;;;1.48;1.15;;;7.90;99.90;;;;;;5030864;28;20033;-78
2022/01/30 13:10:09;;;;;;;2.25;1.13;;;8.20;99.90;;;;;;5031249;28;20021;-78
2022/01/30 13:12:36;;;;;;;5.72;1.27;;;8.90;99.90;;;;;;5030290;28;20412;-79
2022/01/30 13:15:13;;;;;;;1.35;1.00;;;9.20;99.90;;;;;;5029426;28;20028;-77
2022/01/30 13:17:40;;;;;;;2.05;1.40;;;9.90;99.90;;;;;;5033513;28;20060;-79
2022/01/30 13:20:08;;;;;;;2.42;1.38;;;9.80;99.90;;;;;;5040065;28;20032;-79
2022/01/30 13:22:37;;;;;;;2.65;2.05;;;9.80;99.90;;;;;;5036671;28;20037;-78
2022/01/30 13:25:15;;;;;;;1.52;1.40;;;9.80;99.90;;;;;;5027034;28;20021;-79
2022/01/30 13:27:46;;;;;;;4.80;2.65;;;9.90;99.90;;;;;;5009110;28;20053;-79
2022/01/30 13:30:22;;;;;;;7.82;3.63;;;10.30;99.90;;;;;;5013488;28;20026;-79
2022/01/30 13:32:48;;;;;;;5.38;2.08;;;10.60;99.90;;;;;;5017662;28;20030;-79
2022/01/30 13:35:24;;;;;;;8.20;3.45;;;10.50;99.90;;;;;;5031312;28;20108;-79
2022/01/30 13:37:52;;;;;;;4.15;1.73;;;10.80;99.90;;;;;;5017529;28;20422;-78
2022/01/30 13:40:42;;;;;;;4.43;2.10;;;10.50;99.90;;;;;;5016978;28;20054;-80
2022/01/30 13:43:17;;;;;;;2.03;1.80;;;10.30;99.90;;;;;;5014945;28;20018;-81
2022/01/30 13:49:07;;;;;;;3.20;1.83;;;10.10;99.90;;;;;;5015960;28;20393;-83
2022/01/30 13:51:56;;;;;;;4.15;2.17;;;10.40;99.90;;;;;;4942741;28;20083;-84
2022/01/30 13:54:24;;;;;;;3.13;1.67;;;10.30;99.90;;;;;;4933381;29;20042;-80
2022/01/30 13:57:18;;;;;;;2.50;1.30;;;10.10;99.90;;;;;;4981261;28;20042;-83
2022/01/30 13:59:44;;;;;;;2.45;1.10;;;10.20;99.90;;;;;;4988227;28;20045;-80
2022/01/30 14:02:18;;;;;;;3.67;1.90;;;9.60;99.90;;;;;;5016313;28;20029;-80
2022/01/30 14:04:44;;;;;;;1.70;1.55;;;9.50;99.90;;;;;;5014538;28;20026;-80
2022/01/30 14:07:24;;;;;;;2.15;1.10;;;9.80;99.90;;;;;;5020142;28;20086;-83